sensor_id;sensor_type;location;lat;lon;timestamp;P1;durP1;ratioP1;P2;durP2;ratioP2
38879;SDS011;25887;30.194;-97.880;2023-12-20T00:01:01;2.03;;;1.05;;
38879;SDS011;25887;30.194;-97.880;2023-12-20T00:03:28;1.80;;;1.10;;
38879;SDS011;25887;30.194;-97.880;2023-12-20T00:05:54;1.67;;;1.27;;
38879;SDS011;25887;30.194;-97.880;2023-12-20T00:08:20;2.60;;;1.23;;
38879;SDS011;25887;30.194;-97.880;2023-12-20T00:10:49;1.10;;;0.90;;
38879;SDS011;25887;30.194;-97.880;2023-12-20T00:13:15;3.42;;;1.20;;
38879;SDS011;25887;30.194;-97.880;2023-12-20T00:15:41;2.92;;;1.15;;
38879;SDS011;25887;30.194;-97.880;2023-12-20T00:18:07;2.78;;;1.27;;
38879;SDS011;25887;30.194;-97.880;2023-12-20T00:20:34;2.10;;;1.05;;
38879;SDS011;25887;30.194;-97.880;2023-12-20T00:23:00;2.05;;;0.93;;
38879;SDS011;25887;30.194;-97.880;2023-12-20T00:25:27;2.13;;;1.30;;
38879;SDS011;25887;30.194;-97.880;2023-12-20T00:27:54;2.40;;;1.30;;
38879;SDS011;25887;30.194;-97.880;2023-12-20T00:30:20;4.60;;;1.27;;
38879;SDS011;25887;30.194;-97.880;2023-12-20T00:32:46;2.60;;;1.23;;
38879;SDS011;25887;30.194;-97.880;2023-12-20T00:35:13;1.83;;;1.50;;
38879;SDS011;25887;30.194;-97.880;2023-12-20T00:37:40;4.35;;;1.35;;
38879;SDS011;25887;30.194;-97.880;2023-12-20T00:40:06;1.60;;;1.10;;
38879;SDS011;25887;30.194;-97.880;2023-12-20T00:42:33;1.67;;;1.27;;
38879;SDS011;25887;30.194;-97.880;2023-12-20T00:44:59;3.08;;;1.10;;
38879;SDS011;25887;30.194;-97.880;2023-12-20T00:47:26;3.40;;;1.45;;
38879;SDS011;25887;30.194;-97.880;2023-12-20T00:49:52;1.92;;;1.10;;
38879;SDS011;25887;30.194;-97.880;2023-12-20T00:52:20;3.03;;;1.50;;
38879;SDS011;25887;30.194;-97.880;2023-12-20T00:54:48;2.40;;;1.60;;
38879;SDS011;25887;30.194;-97.880;2023-12-20T00:57:14;3.47;;;1.58;;
38879;SDS011;25887;30.194;-97.880;2023-12-20T00:59:40;2.22;;;1.20;;
38879;SDS011;25887;30.194;-97.880;2023-12-20T01:02:06;3.00;;;1.30;;
38879;SDS011;25887;30.194;-97.880;2023-12-20T01:04:34;4.28;;;1.70;;
38879;SDS011;25887;30.194;-97.880;2023-12-20T01:07:00;2.22;;;1.00;;
38879;SDS011;25887;30.194;-97.880;2023-12-20T01:09:27;2.80;;;1.33;;
38879;SDS011;25887;30.194;-97.880;2023-12-20T01:11:53;1.75;;;1.20;;
38879;SDS011;25887;30.194;-97.880;2023-12-20T01:14:20;1.73;;;1.10;;
38879;SDS011;25887;30.194;-97.880;2023-12-20T01:16:46;3.58;;;1.33;;
38879;SDS011;25887;30.194;-97.880;2023-12-20T01:19:13;1.92;;;1.25;;
38879;SDS011;25887;30.194;-97.880;2023-12-20T01:21:40;2.72;;;1.40;;
38879;SDS011;25887;30.194;-97.880;2023-12-20T01:24:06;2.92;;;1.60;;
38879;SDS011;25887;30.194;-97.880;2023-12-20T01:26:33;2.67;;;1.50;;
38879;SDS011;25887;30.194;-97.880;2023-12-20T01:28:59;2.45;;;1.50;;
38879;SDS011;25887;30.194;-97.880;2023-12-20T01:31:26;2.58;;;1.52;;
38879;SDS011;25887;30.194;-97.880;2023-12-20T01:33:52;2.78;;;1.40;;
38879;SDS011;25887;30.194;-97.880;2023-12-20T01:36:19;1.25;;;1.15;;
38879;SDS011;25887;30.194;-97.880;2023-12-20T01:38:45;5.72;;;2.03;;
38879;SDS011;25887;30.194;-97.880;2023-12-20T01:41:13;4.97;;;1.52;;
38879;SDS011;25887;30.194;-97.880;2023-12-20T01:43:39;5.70;;;1.60;;
38879;SDS011;25887;30.194;-97.880;2023-12-20T01:46:05;1.77;;;1.30;;
38879;SDS011;25887;30.194;-97.880;2023-12-20T01:48:32;2.10;;;1.27;;
38879;SDS011;25887;30.194;-97.880;2023-12-20T01:50:59;2.42;;;1.45;;
38879;SDS011;25887;30.194;-97.880;2023-12-20T01:53:26;2.90;;;1.50;;
38879;SDS011;25887;30.194;-97.880;2023-12-20T01:55:54;4.30;;;1.23;;
38879;SDS011;25887;30.194;-97.880;2023-12-20T01:58:22;3.53;;;1.50;;
38879;SDS011;25887;30.194;-97.880;2023-12-20T02:00:49;4.70;;;1.40;;
38879;SDS011;25887;30.194;-97.880;2023-12-20T02:03:17;2.08;;;1.25;;
38879;SDS011;25887;30.194;-97.880;2023-12-20T02:05:44;6.93;;;1.23;;
38879;SDS011;25887;30.194;-97.880;2023-12-20T02:08:12;2.28;;;1.20;;
38879;SDS011;25887;30.194;-97.880;2023-12-20T02:10:38;1.38;;;1.00;;
38879;SDS011;25887;30.194;-97.880;2023-12-20T02:13:06;5.53;;;1.52;;
38879;SDS011;25887;30.194;-97.880;2023-12-20T02:15:32;1.38;;;1.08;;
38879;SDS011;25887;30.194;-97.880;2023-12-20T02:17:58;2.70;;;1.50;;
38879;SDS011;25887;30.194;-97.880;2023-12-20T02:20:25;4.13;;;1.50;;
38879;SDS011;25887;30.194;-97.880;2023-12-20T02:22:51;2.47;;;1.33;;
38879;SDS011;25887;30.194;-97.880;2023-12-20T02:25:19;5.97;;;1.48;;
38879;SDS011;25887;30.194;-97.880;2023-12-20T02:27:45;2.65;;;1.23;;
38879;SDS011;25887;30.194;-97.880;2023-12-20T02:30:12;7.28;;;1.27;;
38879;SDS011;25887;30.194;-97.880;2023-12-20T02:32:38;4.15;;;1.40;;
38879;SDS011;25887;30.194;-97.880;2023-12-20T02:35:04;2.80;;;1.25;;
38879;SDS011;25887;30.194;-97.880;2023-12-20T02:37:32;2.97;;;1.13;;
38879;SDS011;25887;30.194;-97.880;2023-12-20T02:40:00;3.78;;;1.45;;
38879;SDS011;25887;30.194;-97.880;2023-12-20T02:42:26;2.72;;;1.05;;
38879;SDS011;25887;30.194;-97.880;2023-12-20T02:44:52;2.97;;;1.40;;
38879;SDS011;25887;30.194;-97.880;2023-12-20T02:47:18;4.45;;;1.63;;
38879;SDS011;25887;30.194;-97.880;2023-12-20T02:49:45;3.60;;;1.30;;
38879;SDS011;25887;30.194;-97.880;2023-12-20T02:52:11;1.27;;;1.00;;
38879;SDS011;25887;30.194;-97.880;2023-12-20T02:54:37;1.88;;;1.20;;
38879;SDS011;25887;30.194;-97.880;2023-12-20T02:57:04;3.30;;;1.48;;
38879;SDS011;25887;30.194;-97.880;2023-12-20T02:59:30;1.17;;;1.00;;
38879;SDS011;25887;30.194;-97.880;2023-12-20T03:01:56;2.45;;;0.95;;
38879;SDS011;25887;30.194;-97.880;2023-12-20T03:04:23;2.15;;;1.25;;
38879;SDS011;25887;30.194;-97.880;2023-12-20T03:06:49;2.00;;;1.30;;
38879;SDS011;25887;30.194;-97.880;2023-12-20T03:09:15;1.83;;;1.10;;
38879;SDS011;25887;30.194;-97.880;2023-12-20T03:11:41;3.20;;;1.15;;
38879;SDS011;25887;30.194;-97.880;2023-12-20T03:14:08;1.20;;;1.10;;
38879;SDS011;25887;30.194;-97.880;2023-12-20T03:16:34;4.28;;;1.40;;
38879;SDS011;25887;30.194;-97.880;2023-12-20T03:19:00;4.07;;;1.48;;
38879;SDS011;25887;30.194;-97.880;2023-12-20T03:21:27;2.00;;;1.13;;
38879;SDS011;25887;30.194;-97.880;2023-12-20T03:23:54;1.27;;;1.17;;
38879;SDS011;25887;30.194;-97.880;2023-12-20T03:26:20;3.22;;;1.15;;
38879;SDS011;25887;30.194;-97.880;2023-12-20T03:28:48;1.60;;;1.17;;
38879;SDS011;25887;30.194;-97.880;2023-12-20T03:31:14;1.83;;;1.20;;
38879;SDS011;25887;30.194;-97.880;2023-12-20T03:33:40;4.57;;;1.90;;
38879;SDS011;25887;30.194;-97.880;2023-12-20T03:36:06;2.03;;;1.33;;
38879;SDS011;25887;30.194;-97.880;2023-12-20T03:38:33;2.35;;;1.38;;
38879;SDS011;25887;30.194;-97.880;2023-12-20T03:40:59;1.85;;;1.27;;
38879;SDS011;25887;30.194;-97.880;2023-12-20T03:43:25;2.95;;;1.48;;
38879;SDS011;25887;30.194;-97.880;2023-12-20T03:45:51;3.25;;;1.27;;
38879;SDS011;25887;30.194;-97.880;2023-12-20T03:48:18;3.05;;;1.20;;
38879;SDS011;25887;30.194;-97.880;2023-12-20T03:50:44;3.92;;;1.20;;
38879;SDS011;25887;30.194;-97.880;2023-12-20T03:53:10;3.85;;;1.40;;
38879;SDS011;25887;30.194;-97.880;2023-12-20T03:55:36;10.48;;;1.60;;
38879;SDS011;25887;30.194;-97.880;2023-12-20T03:58:03;3.47;;;1.30;;
38879;SDS011;25887;30.194;-97.880;2023-12-20T04:00:29;1.85;;;1.35;;
38879;SDS011;25887;30.194;-97.880;2023-12-20T04:02:55;1.35;;;1.00;;
38879;SDS011;25887;30.194;-97.880;2023-12-20T04:05:22;4.88;;;1.27;;
38879;SDS011;25887;30.194;-97.880;2023-12-20T04:07:48;2.65;;;1.10;;
38879;SDS011;25887;30.194;-97.880;2023-12-20T04:10:15;2.10;;;1.15;;
38879;SDS011;25887;30.194;-97.880;2023-12-20T04:12:42;1.77;;;1.17;;
38879;SDS011;25887;30.194;-97.880;2023-12-20T04:15:08;4.53;;;1.20;;
38879;SDS011;25887;30.194;-97.880;2023-12-20T04:17:35;2.10;;;1.10;;
38879;SDS011;25887;30.194;-97.880;2023-12-20T04:20:21;2.67;;;1.20;;
38879;SDS011;25887;30.194;-97.880;2023-12-20T04:22:47;1.15;;;1.02;;
38879;SDS011;25887;30.194;-97.880;2023-12-20T04:25:14;3.58;;;1.10;;
38879;SDS011;25887;30.194;-97.880;2023-12-20T04:27:40;2.28;;;1.05;;
38879;SDS011;25887;30.194;-97.880;2023-12-20T04:30:07;2.17;;;1.00;;
38879;SDS011;25887;30.194;-97.880;2023-12-20T04:32:34;2.13;;;0.98;;
38879;SDS011;25887;30.194;-97.880;2023-12-20T04:35:00;2.80;;;1.38;;
38879;SDS011;25887;30.194;-97.880;2023-12-20T04:37:26;2.05;;;0.93;;
38879;SDS011;25887;30.194;-97.880;2023-12-20T04:39:53;1.35;;;1.00;;
38879;SDS011;25887;30.194;-97.880;2023-12-20T04:42:22;1.30;;;0.98;;
38879;SDS011;25887;30.194;-97.880;2023-12-20T04:44:48;3.25;;;1.23;;
38879;SDS011;25887;30.194;-97.880;2023-12-20T04:47:14;5.53;;;1.13;;
38879;SDS011;25887;30.194;-97.880;2023-12-20T04:49:40;3.58;;;1.23;;
38879;SDS011;25887;30.194;-97.880;2023-12-20T04:52:06;1.23;;;1.02;;
38879;SDS011;25887;30.194;-97.880;2023-12-20T04:54:32;1.33;;;1.08;;
38879;SDS011;25887;30.194;-97.880;2023-12-20T04:56:59;2.90;;;1.10;;
38879;SDS011;25887;30.194;-97.880;2023-12-20T04:59:25;2.42;;;1.20;;
38879;SDS011;25887;30.194;-97.880;2023-12-20T05:01:51;2.05;;;1.20;;
38879;SDS011;25887;30.194;-97.880;2023-12-20T05:04:20;1.27;;;1.10;;
38879;SDS011;25887;30.194;-97.880;2023-12-20T05:06:47;1.85;;;1.00;;
38879;SDS011;25887;30.194;-97.880;2023-12-20T05:09:15;1.30;;;1.00;;
38879;SDS011;25887;30.194;-97.880;2023-12-20T05:11:41;3.03;;;1.20;;
38879;SDS011;25887;30.194;-97.880;2023-12-20T05:14:07;3.15;;;1.40;;
38879;SDS011;25887;30.194;-97.880;2023-12-20T05:16:34;1.80;;;1.58;;
38879;SDS011;25887;30.194;-97.880;2023-12-20T05:19:00;2.67;;;1.10;;
38879;SDS011;25887;30.194;-97.880;2023-12-20T05:21:32;2.75;;;0.82;;
38879;SDS011;25887;30.194;-97.880;2023-12-20T05:24:00;3.40;;;0.90;;
38879;SDS011;25887;30.194;-97.880;2023-12-20T05:26:27;4.93;;;1.63;;
38879;SDS011;25887;30.194;-97.880;2023-12-20T05:28:54;4.40;;;1.40;;
38879;SDS011;25887;30.194;-97.880;2023-12-20T05:31:21;1.38;;;1.00;;
38879;SDS011;25887;30.194;-97.880;2023-12-20T05:33:47;7.20;;;1.33;;
38879;SDS011;25887;30.194;-97.880;2023-12-20T05:36:13;1.98;;;1.15;;
38879;SDS011;25887;30.194;-97.880;2023-12-20T05:38:41;1.90;;;1.08;;
38879;SDS011;25887;30.194;-97.880;2023-12-20T05:41:08;5.82;;;1.40;;
38879;SDS011;25887;30.194;-97.880;2023-12-20T05:43:34;3.05;;;1.00;;
38879;SDS011;25887;30.194;-97.880;2023-12-20T05:46:00;2.30;;;1.23;;
38879;SDS011;25887;30.194;-97.880;2023-12-20T05:48:27;1.73;;;1.02;;
38879;SDS011;25887;30.194;-97.880;2023-12-20T05:50:53;2.03;;;1.35;;
38879;SDS011;25887;30.194;-97.880;2023-12-20T05:53:19;3.72;;;1.20;;
38879;SDS011;25887;30.194;-97.880;2023-12-20T05:55:45;0.95;;;0.80;;
38879;SDS011;25887;30.194;-97.880;2023-12-20T05:58:12;2.13;;;1.10;;
38879;SDS011;25887;30.194;-97.880;2023-12-20T06:00:38;3.95;;;0.95;;
38879;SDS011;25887;30.194;-97.880;2023-12-20T06:03:05;2.03;;;1.40;;
38879;SDS011;25887;30.194;-97.880;2023-12-20T06:05:31;3.90;;;1.33;;
38879;SDS011;25887;30.194;-97.880;2023-12-20T06:07:58;1.63;;;0.85;;
38879;SDS011;25887;30.194;-97.880;2023-12-20T06:10:28;6.97;;;1.23;;
38879;SDS011;25887;30.194;-97.880;2023-12-20T06:12:55;1.17;;;0.88;;
38879;SDS011;25887;30.194;-97.880;2023-12-20T06:15:21;1.13;;;0.80;;
38879;SDS011;25887;30.194;-97.880;2023-12-20T06:17:48;1.23;;;1.00;;
38879;SDS011;25887;30.194;-97.880;2023-12-20T06:20:14;3.33;;;1.35;;
38879;SDS011;25887;30.194;-97.880;2023-12-20T06:22:41;4.20;;;1.15;;
38879;SDS011;25887;30.194;-97.880;2023-12-20T06:25:07;1.75;;;0.95;;
38879;SDS011;25887;30.194;-97.880;2023-12-20T06:27:34;1.55;;;1.05;;
38879;SDS011;25887;30.194;-97.880;2023-12-20T06:30:00;2.17;;;1.17;;
38879;SDS011;25887;30.194;-97.880;2023-12-20T06:32:28;0.85;;;0.82;;
38879;SDS011;25887;30.194;-97.880;2023-12-20T06:34:54;2.20;;;1.10;;
38879;SDS011;25887;30.194;-97.880;2023-12-20T06:37:20;1.25;;;0.82;;
38879;SDS011;25887;30.194;-97.880;2023-12-20T06:39:47;4.97;;;1.00;;
38879;SDS011;25887;30.194;-97.880;2023-12-20T06:42:13;9.80;;;1.13;;
38879;SDS011;25887;30.194;-97.880;2023-12-20T06:44:39;1.02;;;0.80;;
38879;SDS011;25887;30.194;-97.880;2023-12-20T06:47:05;1.58;;;1.00;;
38879;SDS011;25887;30.194;-97.880;2023-12-20T06:49:32;1.23;;;0.90;;
38879;SDS011;25887;30.194;-97.880;2023-12-20T06:51:58;2.20;;;1.02;;
38879;SDS011;25887;30.194;-97.880;2023-12-20T06:54:24;6.95;;;1.10;;
38879;SDS011;25887;30.194;-97.880;2023-12-20T06:56:50;1.83;;;1.17;;
38879;SDS011;25887;30.194;-97.880;2023-12-20T06:59:17;2.53;;;1.10;;
38879;SDS011;25887;30.194;-97.880;2023-12-20T07:01:47;3.70;;;1.25;;
38879;SDS011;25887;30.194;-97.880;2023-12-20T07:04:16;5.40;;;1.10;;
38879;SDS011;25887;30.194;-97.880;2023-12-20T07:06:47;3.03;;;1.00;;
38879;SDS011;25887;30.194;-97.880;2023-12-20T07:09:16;1.52;;;0.90;;
38879;SDS011;25887;30.194;-97.880;2023-12-20T07:11:43;1.77;;;1.40;;
38879;SDS011;25887;30.194;-97.880;2023-12-20T07:14:09;4.72;;;1.10;;
38879;SDS011;25887;30.194;-97.880;2023-12-20T07:16:35;2.33;;;1.00;;
38879;SDS011;25887;30.194;-97.880;2023-12-20T07:19:01;2.53;;;1.23;;
38879;SDS011;25887;30.194;-97.880;2023-12-20T07:21:28;1.58;;;1.00;;
38879;SDS011;25887;30.194;-97.880;2023-12-20T07:23:54;1.98;;;1.05;;
38879;SDS011;25887;30.194;-97.880;2023-12-20T07:26:20;3.17;;;1.17;;
38879;SDS011;25887;30.194;-97.880;2023-12-20T07:28:47;2.47;;;1.20;;
38879;SDS011;25887;30.194;-97.880;2023-12-20T07:31:15;2.47;;;1.30;;
38879;SDS011;25887;30.194;-97.880;2023-12-20T07:33:41;3.60;;;1.02;;
38879;SDS011;25887;30.194;-97.880;2023-12-20T07:36:07;5.97;;;1.25;;
38879;SDS011;25887;30.194;-97.880;2023-12-20T07:38:34;5.57;;;1.45;;
38879;SDS011;25887;30.194;-97.880;2023-12-20T07:41:00;1.98;;;1.45;;
38879;SDS011;25887;30.194;-97.880;2023-12-20T07:43:27;6.68;;;1.50;;
38879;SDS011;25887;30.194;-97.880;2023-12-20T07:45:53;6.38;;;1.30;;
38879;SDS011;25887;30.194;-97.880;2023-12-20T07:48:19;3.75;;;1.10;;
38879;SDS011;25887;30.194;-97.880;2023-12-20T07:50:46;1.75;;;1.10;;
38879;SDS011;25887;30.194;-97.880;2023-12-20T07:53:12;2.90;;;1.42;;
38879;SDS011;25887;30.194;-97.880;2023-12-20T07:55:39;4.70;;;1.00;;
38879;SDS011;25887;30.194;-97.880;2023-12-20T07:58:05;3.13;;;1.33;;
38879;SDS011;25887;30.194;-97.880;2023-12-20T08:00:31;2.85;;;1.30;;
38879;SDS011;25887;30.194;-97.880;2023-12-20T08:02:57;5.22;;;1.15;;
38879;SDS011;25887;30.194;-97.880;2023-12-20T08:05:23;4.00;;;1.00;;
38879;SDS011;25887;30.194;-97.880;2023-12-20T08:07:50;6.40;;;1.20;;
38879;SDS011;25887;30.194;-97.880;2023-12-20T08:10:16;2.45;;;1.10;;
38879;SDS011;25887;30.194;-97.880;2023-12-20T08:12:44;1.65;;;1.08;;
38879;SDS011;25887;30.194;-97.880;2023-12-20T08:15:10;4.47;;;1.10;;
38879;SDS011;25887;30.194;-97.880;2023-12-20T08:17:36;2.63;;;1.20;;
38879;SDS011;25887;30.194;-97.880;2023-12-20T08:20:03;4.35;;;1.00;;
38879;SDS011;25887;30.194;-97.880;2023-12-20T08:22:29;2.30;;;1.10;;
38879;SDS011;25887;30.194;-97.880;2023-12-20T08:24:56;3.20;;;1.10;;
38879;SDS011;25887;30.194;-97.880;2023-12-20T08:27:22;13.15;;;1.20;;
38879;SDS011;25887;30.194;-97.880;2023-12-20T08:29:48;2.85;;;1.38;;
38879;SDS011;25887;30.194;-97.880;2023-12-20T08:32:16;3.22;;;1.48;;
38879;SDS011;25887;30.194;-97.880;2023-12-20T08:34:42;7.88;;;1.92;;
38879;SDS011;25887;30.194;-97.880;2023-12-20T08:37:08;3.42;;;1.13;;
38879;SDS011;25887;30.194;-97.880;2023-12-20T08:39:34;4.30;;;0.95;;
38879;SDS011;25887;30.194;-97.880;2023-12-20T08:42:00;1.58;;;0.95;;
38879;SDS011;25887;30.194;-97.880;2023-12-20T08:44:27;4.18;;;1.27;;
38879;SDS011;25887;30.194;-97.880;2023-12-20T08:46:53;2.72;;;1.10;;
38879;SDS011;25887;30.194;-97.880;2023-12-20T08:49:22;1.58;;;1.13;;
38879;SDS011;25887;30.194;-97.880;2023-12-20T08:51:48;3.95;;;1.30;;
38879;SDS011;25887;30.194;-97.880;2023-12-20T08:54:15;5.20;;;1.27;;
38879;SDS011;25887;30.194;-97.880;2023-12-20T08:56:42;2.58;;;1.13;;
38879;SDS011;25887;30.194;-97.880;2023-12-20T08:59:08;7.75;;;1.10;;
38879;SDS011;25887;30.194;-97.880;2023-12-20T09:01:35;4.28;;;1.23;;
38879;SDS011;25887;30.194;-97.880;2023-12-20T09:04:01;3.20;;;1.33;;
38879;SDS011;25887;30.194;-97.880;2023-12-20T09:06:27;2.05;;;1.10;;
38879;SDS011;25887;30.194;-97.880;2023-12-20T09:08:53;2.92;;;0.93;;
38879;SDS011;25887;30.194;-97.880;2023-12-20T09:11:19;2.47;;;1.20;;
38879;SDS011;25887;30.194;-97.880;2023-12-20T09:13:46;2.95;;;1.10;;
38879;SDS011;25887;30.194;-97.880;2023-12-20T09:16:12;5.57;;;1.08;;
38879;SDS011;25887;30.194;-97.880;2023-12-20T09:18:41;1.98;;;1.30;;
38879;SDS011;25887;30.194;-97.880;2023-12-20T09:21:08;3.00;;;1.08;;
38879;SDS011;25887;30.194;-97.880;2023-12-20T09:23:34;2.50;;;1.48;;
38879;SDS011;25887;30.194;-97.880;2023-12-20T09:26:02;1.30;;;0.98;;
38879;SDS011;25887;30.194;-97.880;2023-12-20T09:28:29;3.35;;;1.35;;
38879;SDS011;25887;30.194;-97.880;2023-12-20T09:30:55;4.47;;;1.20;;
38879;SDS011;25887;30.194;-97.880;2023-12-20T09:33:22;2.28;;;1.10;;
38879;SDS011;25887;30.194;-97.880;2023-12-20T09:35:50;1.60;;;0.95;;
38879;SDS011;25887;30.194;-97.880;2023-12-20T09:38:16;1.50;;;0.95;;
38879;SDS011;25887;30.194;-97.880;2023-12-20T09:40:42;4.55;;;1.05;;
38879;SDS011;25887;30.194;-97.880;2023-12-20T09:43:10;3.25;;;1.20;;
38879;SDS011;25887;30.194;-97.880;2023-12-20T09:45:40;3.10;;;1.20;;
38879;SDS011;25887;30.194;-97.880;2023-12-20T09:48:11;4.35;;;1.17;;
38879;SDS011;25887;30.194;-97.880;2023-12-20T09:50:40;3.25;;;1.42;;
38879;SDS011;25887;30.194;-97.880;2023-12-20T09:53:07;4.35;;;1.30;;
38879;SDS011;25887;30.194;-97.880;2023-12-20T09:55:35;6.47;;;1.08;;
38879;SDS011;25887;30.194;-97.880;2023-12-20T09:58:02;2.63;;;1.30;;
38879;SDS011;25887;30.194;-97.880;2023-12-20T10:00:28;3.50;;;1.15;;
38879;SDS011;25887;30.194;-97.880;2023-12-20T10:02:58;4.22;;;1.00;;
38879;SDS011;25887;30.194;-97.880;2023-12-20T10:05:30;1.13;;;1.00;;
38879;SDS011;25887;30.194;-97.880;2023-12-20T10:07:57;1.80;;;0.93;;
38879;SDS011;25887;30.194;-97.880;2023-12-20T10:10:24;2.47;;;1.20;;
38879;SDS011;25887;30.194;-97.880;2023-12-20T10:15:46;0.80;;;0.80;;
38879;SDS011;25887;30.194;-97.880;2023-12-20T10:18:15;2.47;;;1.20;;
38879;SDS011;25887;30.194;-97.880;2023-12-20T10:20:41;5.63;;;1.20;;
38879;SDS011;25887;30.194;-97.880;2023-12-20T10:23:08;1.90;;;1.20;;
38879;SDS011;25887;30.194;-97.880;2023-12-20T10:25:35;5.35;;;1.30;;
38879;SDS011;25887;30.194;-97.880;2023-12-20T10:28:16;2.90;;;1.30;;
38879;SDS011;25887;30.194;-97.880;2023-12-20T10:30:44;3.67;;;1.10;;
38879;SDS011;25887;30.194;-97.880;2023-12-20T10:33:10;1.92;;;1.25;;
38879;SDS011;25887;30.194;-97.880;2023-12-20T10:35:37;2.00;;;1.17;;
38879;SDS011;25887;30.194;-97.880;2023-12-20T10:38:05;3.25;;;1.25;;
38879;SDS011;25887;30.194;-97.880;2023-12-20T10:40:35;2.90;;;1.20;;
38879;SDS011;25887;30.194;-97.880;2023-12-20T10:43:02;2.15;;;1.15;;
38879;SDS011;25887;30.194;-97.880;2023-12-20T10:45:31;1.55;;;1.20;;
38879;SDS011;25887;30.194;-97.880;2023-12-20T10:47:59;7.05;;;1.30;;
38879;SDS011;25887;30.194;-97.880;2023-12-20T10:50:27;4.63;;;1.30;;
38879;SDS011;25887;30.194;-97.880;2023-12-20T10:52:55;3.55;;;2.10;;
38879;SDS011;25887;30.194;-97.880;2023-12-20T10:55:22;7.05;;;1.45;;
38879;SDS011;25887;30.194;-97.880;2023-12-20T10:57:52;6.32;;;1.60;;
38879;SDS011;25887;30.194;-97.880;2023-12-20T11:00:25;5.68;;;1.30;;
38879;SDS011;25887;30.194;-97.880;2023-12-20T11:02:53;13.32;;;1.85;;
38879;SDS011;25887;30.194;-97.880;2023-12-20T11:05:30;2.67;;;1.20;;
38879;SDS011;25887;30.194;-97.880;2023-12-20T11:10:39;1.77;;;1.23;;
38879;SDS011;25887;30.194;-97.880;2023-12-20T11:13:23;2.65;;;1.27;;
38879;SDS011;25887;30.194;-97.880;2023-12-20T11:15:58;7.10;;;1.80;;
38879;SDS011;25887;30.194;-97.880;2023-12-20T11:18:31;2.63;;;1.35;;
38879;SDS011;25887;30.194;-97.880;2023-12-20T11:23:31;2.15;;;1.35;;
38879;SDS011;25887;30.194;-97.880;2023-12-20T11:25:59;2.03;;;1.23;;
38879;SDS011;25887;30.194;-97.880;2023-12-20T11:28:27;5.40;;;1.25;;
38879;SDS011;25887;30.194;-97.880;2023-12-20T11:30:55;7.82;;;1.77;;
38879;SDS011;25887;30.194;-97.880;2023-12-20T11:33:26;8.85;;;1.58;;
38879;SDS011;25887;30.194;-97.880;2023-12-20T11:35:55;7.65;;;1.45;;
38879;SDS011;25887;30.194;-97.880;2023-12-20T11:38:22;4.15;;;1.50;;
38879;SDS011;25887;30.194;-97.880;2023-12-20T11:40:49;1.63;;;0.90;;
38879;SDS011;25887;30.194;-97.880;2023-12-20T11:43:35;7.03;;;1.50;;
38879;SDS011;25887;30.194;-97.880;2023-12-20T11:46:05;4.07;;;1.30;;
38879;SDS011;25887;30.194;-97.880;2023-12-20T11:48:37;3.38;;;1.65;;
38879;SDS011;25887;30.194;-97.880;2023-12-20T11:51:11;7.07;;;1.60;;
38879;SDS011;25887;30.194;-97.880;2023-12-20T11:53:38;1.95;;;1.40;;
38879;SDS011;25887;30.194;-97.880;2023-12-20T11:56:06;2.15;;;1.30;;
38879;SDS011;25887;30.194;-97.880;2023-12-20T11:58:36;3.58;;;1.80;;
38879;SDS011;25887;30.194;-97.880;2023-12-20T12:01:02;4.38;;;1.77;;
38879;SDS011;25887;30.194;-97.880;2023-12-20T12:03:29;5.20;;;1.42;;
38879;SDS011;25887;30.194;-97.880;2023-12-20T12:05:56;7.10;;;2.10;;
38879;SDS011;25887;30.194;-97.880;2023-12-20T12:08:23;3.95;;;1.70;;
38879;SDS011;25887;30.194;-97.880;2023-12-20T12:10:49;6.68;;;1.63;;
38879;SDS011;25887;30.194;-97.880;2023-12-20T12:13:16;4.63;;;1.77;;
38879;SDS011;25887;30.194;-97.880;2023-12-20T12:15:47;2.17;;;1.40;;
38879;SDS011;25887;30.194;-97.880;2023-12-20T12:18:15;7.45;;;1.77;;
38879;SDS011;25887;30.194;-97.880;2023-12-20T12:20:44;2.88;;;1.88;;
38879;SDS011;25887;30.194;-97.880;2023-12-20T12:23:12;3.63;;;1.48;;
38879;SDS011;25887;30.194;-97.880;2023-12-20T12:25:40;3.13;;;1.52;;
38879;SDS011;25887;30.194;-97.880;2023-12-20T12:28:06;2.10;;;1.42;;
38879;SDS011;25887;30.194;-97.880;2023-12-20T12:30:32;6.15;;;1.88;;
38879;SDS011;25887;30.194;-97.880;2023-12-20T12:32:59;2.33;;;1.20;;
38879;SDS011;25887;30.194;-97.880;2023-12-20T12:35:25;7.20;;;1.42;;
38879;SDS011;25887;30.194;-97.880;2023-12-20T12:37:51;3.15;;;1.85;;
38879;SDS011;25887;30.194;-97.880;2023-12-20T12:40:18;2.88;;;1.50;;
38879;SDS011;25887;30.194;-97.880;2023-12-20T12:42:45;3.08;;;1.92;;
38879;SDS011;25887;30.194;-97.880;2023-12-20T12:45:11;4.00;;;1.33;;
38879;SDS011;25887;30.194;-97.880;2023-12-20T12:47:38;5.90;;;2.00;;
38879;SDS011;25887;30.194;-97.880;2023-12-20T12:50:05;3.95;;;2.10;;
38879;SDS011;25887;30.194;-97.880;2023-12-20T12:52:32;3.92;;;1.75;;
38879;SDS011;25887;30.194;-97.880;2023-12-20T12:54:59;4.03;;;1.95;;
38879;SDS011;25887;30.194;-97.880;2023-12-20T12:57:25;2.70;;;1.50;;
38879;SDS011;25887;30.194;-97.880;2023-12-20T12:59:54;4.10;;;1.45;;
38879;SDS011;25887;30.194;-97.880;2023-12-20T13:02:20;4.40;;;1.90;;
38879;SDS011;25887;30.194;-97.880;2023-12-20T13:04:47;6.38;;;1.85;;
38879;SDS011;25887;30.194;-97.880;2023-12-20T13:07:13;4.78;;;1.95;;
38879;SDS011;25887;30.194;-97.880;2023-12-20T13:09:39;7.38;;;2.10;;
38879;SDS011;25887;30.194;-97.880;2023-12-20T13:12:06;8.18;;;2.50;;
38879;SDS011;25887;30.194;-97.880;2023-12-20T13:14:35;4.60;;;2.50;;
38879;SDS011;25887;30.194;-97.880;2023-12-20T13:17:06;4.55;;;1.80;;
38879;SDS011;25887;30.194;-97.880;2023-12-20T13:19:32;4.15;;;2.10;;
38879;SDS011;25887;30.194;-97.880;2023-12-20T13:21:59;3.55;;;1.92;;
38879;SDS011;25887;30.194;-97.880;2023-12-20T13:24:25;5.97;;;2.00;;
38879;SDS011;25887;30.194;-97.880;2023-12-20T13:26:51;4.78;;;2.22;;
38879;SDS011;25887;30.194;-97.880;2023-12-20T13:29:18;3.90;;;2.40;;
38879;SDS011;25887;30.194;-97.880;2023-12-20T13:31:44;7.63;;;2.13;;
38879;SDS011;25887;30.194;-97.880;2023-12-20T13:34:10;7.35;;;2.28;;
38879;SDS011;25887;30.194;-97.880;2023-12-20T13:36:37;4.13;;;2.00;;
38879;SDS011;25887;30.194;-97.880;2023-12-20T13:39:04;4.50;;;2.22;;
38879;SDS011;25887;30.194;-97.880;2023-12-20T13:41:30;8.45;;;1.80;;
38879;SDS011;25887;30.194;-97.880;2023-12-20T13:43:57;5.90;;;2.58;;
38879;SDS011;25887;30.194;-97.880;2023-12-20T13:46:23;4.20;;;2.17;;
38879;SDS011;25887;30.194;-97.880;2023-12-20T13:48:49;9.00;;;2.25;;
38879;SDS011;25887;30.194;-97.880;2023-12-20T13:51:15;5.72;;;1.77;;
38879;SDS011;25887;30.194;-97.880;2023-12-20T13:53:42;6.25;;;2.33;;
38879;SDS011;25887;30.194;-97.880;2023-12-20T13:56:08;3.92;;;1.90;;
38879;SDS011;25887;30.194;-97.880;2023-12-20T13:58:34;8.15;;;2.83;;
38879;SDS011;25887;30.194;-97.880;2023-12-20T14:01:00;8.00;;;2.47;;
38879;SDS011;25887;30.194;-97.880;2023-12-20T14:03:26;6.63;;;2.47;;
38879;SDS011;25887;30.194;-97.880;2023-12-20T14:05:53;8.40;;;2.45;;
38879;SDS011;25887;30.194;-97.880;2023-12-20T14:08:19;6.63;;;2.00;;
38879;SDS011;25887;30.194;-97.880;2023-12-20T14:10:45;5.53;;;2.17;;
38879;SDS011;25887;30.194;-97.880;2023-12-20T14:13:13;10.98;;;2.45;;
38879;SDS011;25887;30.194;-97.880;2023-12-20T14:15:40;6.40;;;2.75;;
38879;SDS011;25887;30.194;-97.880;2023-12-20T14:18:06;11.90;;;2.55;;
38879;SDS011;25887;30.194;-97.880;2023-12-20T14:20:35;3.20;;;1.75;;
38879;SDS011;25887;30.194;-97.880;2023-12-20T14:23:02;5.32;;;2.30;;
38879;SDS011;25887;30.194;-97.880;2023-12-20T14:25:28;5.60;;;2.15;;
38879;SDS011;25887;30.194;-97.880;2023-12-20T14:27:56;10.00;;;3.05;;